sensor_id;sensor_type;location;lat;lon;timestamp;temperature;humidity
2723;DHT22;1369;53.216;10.396;2022-10-17T00:02:14;12.20;99.90
2723;DHT22;1369;53.216;10.396;2022-10-17T00:04:40;12.20;99.90
2723;DHT22;1369;53.216;10.396;2022-10-17T00:07:05;12.20;99.90
2723;DHT22;1369;53.216;10.396;2022-10-17T00:09:31;12.30;99.90
2723;DHT22;1369;53.216;10.396;2022-10-17T00:11:56;12.30;99.90
2723;DHT22;1369;53.216;10.396;2022-10-17T00:14:22;12.30;99.90
2723;DHT22;1369;53.216;10.396;2022-10-17T00:16:47;12.30;99.90
2723;DHT22;1369;53.216;10.396;2022-10-17T00:19:13;12.40;99.90
2723;DHT22;1369;53.216;10.396;2022-10-17T00:21:38;12.40;99.90
2723;DHT22;1369;53.216;10.396;2022-10-17T00:24:04;12.30;99.90
2723;DHT22;1369;53.216;10.396;2022-10-17T00:26:30;12.30;99.90
2723;DHT22;1369;53.216;10.396;2022-10-17T00:28:55;12.30;99.90
2723;DHT22;1369;53.216;10.396;2022-10-17T00:31:22;12.30;99.90
2723;DHT22;1369;53.216;10.396;2022-10-17T00:33:47;12.30;99.90
2723;DHT22;1369;53.216;10.396;2022-10-17T00:36:21;12.30;99.90
2723;DHT22;1369;53.216;10.396;2022-10-17T00:38:50;12.30;99.90
2723;DHT22;1369;53.216;10.396;2022-10-17T00:41:19;12.30;99.90
2723;DHT22;1369;53.216;10.396;2022-10-17T00:46:22;12.20;99.90
2723;DHT22;1369;53.216;10.396;2022-10-17T00:48:50;12.20;99.90
2723;DHT22;1369;53.216;10.396;2022-10-17T00:51:22;12.10;99.90
2723;DHT22;1369;53.216;10.396;2022-10-17T00:53:49;12.20;99.90
2723;DHT22;1369;53.216;10.396;2022-10-17T00:56:17;12.20;99.90
2723;DHT22;1369;53.216;10.396;2022-10-17T00:58:43;12.20;99.90
2723;DHT22;1369;53.216;10.396;2022-10-17T01:01:09;12.20;99.90
2723;DHT22;1369;53.216;10.396;2022-10-17T01:03:34;12.30;99.90
2723;DHT22;1369;53.216;10.396;2022-10-17T01:06:00;12.30;99.90
2723;DHT22;1369;53.216;10.396;2022-10-17T01:08:26;12.30;99.90
2723;DHT22;1369;53.216;10.396;2022-10-17T01:22:46;12.30;99.90
2723;DHT22;1369;53.216;10.396;2022-10-17T01:25:24;12.30;99.90
2723;DHT22;1369;53.216;10.396;2022-10-17T01:28:05;12.30;99.90
2723;DHT22;1369;53.216;10.396;2022-10-17T01:30:56;12.30;99.90
2723;DHT22;1369;53.216;10.396;2022-10-17T01:33:59;12.30;99.90
2723;DHT22;1369;53.216;10.396;2022-10-17T01:36:52;12.30;99.90
2723;DHT22;1369;53.216;10.396;2022-10-17T01:42:45;12.30;99.90
2723;DHT22;1369;53.216;10.396;2022-10-17T01:45:05;12.30;99.90
2723;DHT22;1369;53.216;10.396;2022-10-17T01:47:34;12.20;99.90
2723;DHT22;1369;53.216;10.396;2022-10-17T01:50:05;12.20;99.90
2723;DHT22;1369;53.216;10.396;2022-10-17T01:52:41;12.20;99.90
2723;DHT22;1369;53.216;10.396;2022-10-17T01:55:12;12.10;99.90
2723;DHT22;1369;53.216;10.396;2022-10-17T01:57:42;12.10;99.90
2723;DHT22;1369;53.216;10.396;2022-10-17T02:00:12;12.10;99.90
2723;DHT22;1369;53.216;10.396;2022-10-17T02:02:40;12.20;99.90
2723;DHT22;1369;53.216;10.396;2022-10-17T02:05:08;12.20;99.90
2723;DHT22;1369;53.216;10.396;2022-10-17T02:07:34;12.30;99.90
2723;DHT22;1369;53.216;10.396;2022-10-17T02:09:59;12.30;99.90
2723;DHT22;1369;53.216;10.396;2022-10-17T02:15:24;12.40;99.90
2723;DHT22;1369;53.216;10.396;2022-10-17T02:23:18;12.40;99.90
2723;DHT22;1369;53.216;10.396;2022-10-17T02:26:10;12.40;99.90
2723;DHT22;1369;53.216;10.396;2022-10-17T02:28:51;12.40;99.90
2723;DHT22;1369;53.216;10.396;2022-10-17T02:31:28;12.40;99.90
2723;DHT22;1369;53.216;10.396;2022-10-17T02:34:00;12.40;99.90
2723;DHT22;1369;53.216;10.396;2022-10-17T02:36:39;12.40;99.90
2723;DHT22;1369;53.216;10.396;2022-10-17T02:39:07;12.30;99.90
2723;DHT22;1369;53.216;10.396;2022-10-17T02:41:35;12.30;99.90
2723;DHT22;1369;53.216;10.396;2022-10-17T02:44:02;12.20;99.90
2723;DHT22;1369;53.216;10.396;2022-10-17T02:46:29;12.20;99.90
2723;DHT22;1369;53.216;10.396;2022-10-17T02:49:02;12.10;99.90
2723;DHT22;1369;53.216;10.396;2022-10-17T02:52:07;12.10;99.90
2723;DHT22;1369;53.216;10.396;2022-10-17T02:57:38;12.00;99.90
2723;DHT22;1369;53.216;10.396;2022-10-17T03:00:08;12.00;99.90
2723;DHT22;1369;53.216;10.396;2022-10-17T03:02:45;11.90;99.90
2723;DHT22;1369;53.216;10.396;2022-10-17T03:05:15;11.90;99.90
2723;DHT22;1369;53.216;10.396;2022-10-17T03:07:40;11.90;99.90
2723;DHT22;1369;53.216;10.396;2022-10-17T03:10:06;11.90;99.90
2723;DHT22;1369;53.216;10.396;2022-10-17T03:12:32;11.90;99.90
2723;DHT22;1369;53.216;10.396;2022-10-17T03:14:57;11.90;99.90
2723;DHT22;1369;53.216;10.396;2022-10-17T03:17:23;11.90;99.90
2723;DHT22;1369;53.216;10.396;2022-10-17T03:19:48;11.80;99.90
2723;DHT22;1369;53.216;10.396;2022-10-17T03:22:13;11.80;99.90
2723;DHT22;1369;53.216;10.396;2022-10-17T03:24:39;11.80;99.90
2723;DHT22;1369;53.216;10.396;2022-10-17T03:27:04;11.90;99.90
2723;DHT22;1369;53.216;10.396;2022-10-17T03:29:30;12.00;99.90
2723;DHT22;1369;53.216;10.396;2022-10-17T03:31:55;11.90;99.90
2723;DHT22;1369;53.216;10.396;2022-10-17T03:34:21;11.90;99.90
2723;DHT22;1369;53.216;10.396;2022-10-17T03:36:47;11.90;99.90
2723;DHT22;1369;53.216;10.396;2022-10-17T03:39:12;11.90;99.90
2723;DHT22;1369;53.216;10.396;2022-10-17T03:41:38;11.80;99.90
2723;DHT22;1369;53.216;10.396;2022-10-17T03:44:03;11.80;99.90
2723;DHT22;1369;53.216;10.396;2022-10-17T03:46:29;11.80;99.90
2723;DHT22;1369;53.216;10.396;2022-10-17T03:48:54;11.80;99.90
2723;DHT22;1369;53.216;10.396;2022-10-17T03:51:20;11.70;99.90
2723;DHT22;1369;53.216;10.396;2022-10-17T03:53:46;11.70;99.90
2723;DHT22;1369;53.216;10.396;2022-10-17T03:56:22;11.70;99.90
2723;DHT22;1369;53.216;10.396;2022-10-17T03:58:48;11.70;99.90
2723;DHT22;1369;53.216;10.396;2022-10-17T04:01:15;11.70;99.90
2723;DHT22;1369;53.216;10.396;2022-10-17T04:03:41;11.80;99.90
2723;DHT22;1369;53.216;10.396;2022-10-17T04:06:10;11.80;99.90
2723;DHT22;1369;53.216;10.396;2022-10-17T04:08:36;11.70;99.90
2723;DHT22;1369;53.216;10.396;2022-10-17T04:11:04;11.70;99.90
2723;DHT22;1369;53.216;10.396;2022-10-17T04:13:30;11.70;99.90
2723;DHT22;1369;53.216;10.396;2022-10-17T04:16:02;11.60;99.90
2723;DHT22;1369;53.216;10.396;2022-10-17T04:18:27;11.60;99.90
2723;DHT22;1369;53.216;10.396;2022-10-17T04:20:53;11.60;99.90
2723;DHT22;1369;53.216;10.396;2022-10-17T04:23:19;11.50;99.90
2723;DHT22;1369;53.216;10.396;2022-10-17T04:25:44;11.50;99.90
2723;DHT22;1369;53.216;10.396;2022-10-17T04:28:10;11.40;99.90
2723;DHT22;1369;53.216;10.396;2022-10-17T04:30:35;11.30;99.90
2723;DHT22;1369;53.216;10.396;2022-10-17T04:33:01;11.30;99.90
2723;DHT22;1369;53.216;10.396;2022-10-17T04:35:27;11.30;99.90
2723;DHT22;1369;53.216;10.396;2022-10-17T04:37:52;11.20;99.90
2723;DHT22;1369;53.216;10.396;2022-10-17T04:40:18;11.20;99.90
2723;DHT22;1369;53.216;10.396;2022-10-17T04:42:45;11.20;99.90
2723;DHT22;1369;53.216;10.396;2022-10-17T04:45:10;11.10;99.90
2723;DHT22;1369;53.216;10.396;2022-10-17T04:47:36;11.10;99.90
2723;DHT22;1369;53.216;10.396;2022-10-17T04:50:03;11.10;99.90
2723;DHT22;1369;53.216;10.396;2022-10-17T04:52:28;11.00;99.90
2723;DHT22;1369;53.216;10.396;2022-10-17T04:54:54;11.00;99.90
2723;DHT22;1369;53.216;10.396;2022-10-17T04:57:19;10.90;99.90
2723;DHT22;1369;53.216;10.396;2022-10-17T04:59:45;10.90;99.90
2723;DHT22;1369;53.216;10.396;2022-10-17T05:02:10;10.90;99.90
2723;DHT22;1369;53.216;10.396;2022-10-17T05:04:36;10.90;99.90
2723;DHT22;1369;53.216;10.396;2022-10-17T05:07:02;10.90;99.90
2723;DHT22;1369;53.216;10.396;2022-10-17T05:09:28;10.90;99.90
2723;DHT22;1369;53.216;10.396;2022-10-17T05:11:54;10.80;99.90
2723;DHT22;1369;53.216;10.396;2022-10-17T05:14:19;10.80;99.90
2723;DHT22;1369;53.216;10.396;2022-10-17T05:16:45;10.80;99.90
2723;DHT22;1369;53.216;10.396;2022-10-17T05:19:10;10.80;99.90
2723;DHT22;1369;53.216;10.396;2022-10-17T05:21:36;10.80;99.90
2723;DHT22;1369;53.216;10.396;2022-10-17T05:24:05;10.80;99.90
2723;DHT22;1369;53.216;10.396;2022-10-17T05:26:30;10.80;99.90
2723;DHT22;1369;53.216;10.396;2022-10-17T05:28:56;10.80;99.90
2723;DHT22;1369;53.216;10.396;2022-10-17T05:31:22;10.80;99.90
2723;DHT22;1369;53.216;10.396;2022-10-17T05:33:48;10.70;99.90
2723;DHT22;1369;53.216;10.396;2022-10-17T05:36:13;10.70;99.90
2723;DHT22;1369;53.216;10.396;2022-10-17T05:38:39;10.70;99.90
2723;DHT22;1369;53.216;10.396;2022-10-17T05:41:05;10.70;99.90
2723;DHT22;1369;53.216;10.396;2022-10-17T05:43:30;10.70;99.90
2723;DHT22;1369;53.216;10.396;2022-10-17T05:45:56;10.70;99.90
2723;DHT22;1369;53.216;10.396;2022-10-17T05:48:22;10.80;99.90
2723;DHT22;1369;53.216;10.396;2022-10-17T05:50:48;10.70;99.90
2723;DHT22;1369;53.216;10.396;2022-10-17T05:53:14;10.80;99.90
2723;DHT22;1369;53.216;10.396;2022-10-17T05:55:40;10.80;99.90
2723;DHT22;1369;53.216;10.396;2022-10-17T05:58:06;10.90;99.90
2723;DHT22;1369;53.216;10.396;2022-10-17T06:00:31;10.90;99.90
2723;DHT22;1369;53.216;10.396;2022-10-17T06:02:57;11.00;99.90
2723;DHT22;1369;53.216;10.396;2022-10-17T06:05:22;11.00;99.90
2723;DHT22;1369;53.216;10.396;2022-10-17T06:07:48;11.00;99.90
2723;DHT22;1369;53.216;10.396;2022-10-17T06:10:14;11.10;99.90
2723;DHT22;1369;53.216;10.396;2022-10-17T06:12:42;11.10;99.90
2723;DHT22;1369;53.216;10.396;2022-10-17T06:15:08;11.20;99.90
2723;DHT22;1369;53.216;10.396;2022-10-17T06:17:34;11.30;99.90
2723;DHT22;1369;53.216;10.396;2022-10-17T06:19:59;11.30;99.90
2723;DHT22;1369;53.216;10.396;2022-10-17T06:22:25;11.40;99.90
2723;DHT22;1369;53.216;10.396;2022-10-17T06:24:50;11.50;99.90
2723;DHT22;1369;53.216;10.396;2022-10-17T06:27:18;11.50;99.90
2723;DHT22;1369;53.216;10.396;2022-10-17T06:29:44;11.60;99.90
2723;DHT22;1369;53.216;10.396;2022-10-17T06:32:09;11.60;99.90
2723;DHT22;1369;53.216;10.396;2022-10-17T06:34:35;11.70;99.90
2723;DHT22;1369;53.216;10.396;2022-10-17T06:37:00;11.70;99.90
2723;DHT22;1369;53.216;10.396;2022-10-17T06:39:26;11.70;99.90
2723;DHT22;1369;53.216;10.396;2022-10-17T06:41:58;11.70;99.90
2723;DHT22;1369;53.216;10.396;2022-10-17T06:44:24;11.70;99.90
2723;DHT22;1369;53.216;10.396;2022-10-17T06:46:52;11.80;99.90
2723;DHT22;1369;53.216;10.396;2022-10-17T06:49:18;11.80;99.90
2723;DHT22;1369;53.216;10.396;2022-10-17T06:51:43;11.80;99.90
2723;DHT22;1369;53.216;10.396;2022-10-17T06:54:09;11.90;99.90
2723;DHT22;1369;53.216;10.396;2022-10-17T06:56:34;11.90;99.90
2723;DHT22;1369;53.216;10.396;2022-10-17T06:59:00;11.90;99.90
2723;DHT22;1369;53.216;10.396;2022-10-17T07:01:25;12.00;99.90
2723;DHT22;1369;53.216;10.396;2022-10-17T07:03:52;12.00;99.90
2723;DHT22;1369;53.216;10.396;2022-10-17T07:06:18;12.10;99.90
2723;DHT22;1369;53.216;10.396;2022-10-17T07:08:44;12.10;99.90
2723;DHT22;1369;53.216;10.396;2022-10-17T07:11:12;12.10;99.90
2723;DHT22;1369;53.216;10.396;2022-10-17T07:13:38;12.10;99.90
2723;DHT22;1369;53.216;10.396;2022-10-17T07:16:04;12.20;99.90
2723;DHT22;1369;53.216;10.396;2022-10-17T07:18:30;12.30;99.90
2723;DHT22;1369;53.216;10.396;2022-10-17T07:20:55;12.50;99.90
2723;DHT22;1369;53.216;10.396;2022-10-17T07:23:22;12.60;99.90
2723;DHT22;1369;53.216;10.396;2022-10-17T07:25:47;12.80;99.90
2723;DHT22;1369;53.216;10.396;2022-10-17T07:28:14;13.00;99.90
2723;DHT22;1369;53.216;10.396;2022-10-17T07:30:40;13.20;99.90
2723;DHT22;1369;53.216;10.396;2022-10-17T07:33:05;13.30;99.90
2723;DHT22;1369;53.216;10.396;2022-10-17T07:35:31;13.50;99.90
2723;DHT22;1369;53.216;10.396;2022-10-17T07:37:56;13.70;99.90
2723;DHT22;1369;53.216;10.396;2022-10-17T07:40:22;13.90;99.90
2723;DHT22;1369;53.216;10.396;2022-10-17T07:42:47;14.00;99.90
2723;DHT22;1369;53.216;10.396;2022-10-17T07:45:13;14.00;99.90
2723;DHT22;1369;53.216;10.396;2022-10-17T07:47:40;14.00;99.90
2723;DHT22;1369;53.216;10.396;2022-10-17T07:50:06;13.90;99.90
2723;DHT22;1369;53.216;10.396;2022-10-17T07:52:32;13.90;99.90
2723;DHT22;1369;53.216;10.396;2022-10-17T07:54:58;14.00;99.90
2723;DHT22;1369;53.216;10.396;2022-10-17T07:57:24;14.00;99.90
2723;DHT22;1369;53.216;10.396;2022-10-17T07:59:49;14.00;99.90
2723;DHT22;1369;53.216;10.396;2022-10-17T08:02:24;14.10;99.90
2723;DHT22;1369;53.216;10.396;2022-10-17T08:04:53;14.20;99.90
2723;DHT22;1369;53.216;10.396;2022-10-17T08:07:19;14.20;99.90
2723;DHT22;1369;53.216;10.396;2022-10-17T08:09:45;14.30;99.90
2723;DHT22;1369;53.216;10.396;2022-10-17T08:12:12;14.40;99.90
2723;DHT22;1369;53.216;10.396;2022-10-17T08:14:39;14.50;99.90
2723;DHT22;1369;53.216;10.396;2022-10-17T08:17:05;14.70;99.90
2723;DHT22;1369;53.216;10.396;2022-10-17T08:19:31;15.10;99.90
2723;DHT22;1369;53.216;10.396;2022-10-17T08:21:56;15.40;99.90
2723;DHT22;1369;53.216;10.396;2022-10-17T08:24:23;15.70;99.90
2723;DHT22;1369;53.216;10.396;2022-10-17T08:26:49;16.00;99.90
2723;DHT22;1369;53.216;10.396;2022-10-17T08:29:15;16.20;99.90
2723;DHT22;1369;53.216;10.396;2022-10-17T08:31:41;16.40;99.90
2723;DHT22;1369;53.216;10.396;2022-10-17T08:34:07;16.50;99.90
2723;DHT22;1369;53.216;10.396;2022-10-17T08:36:32;16.60;99.90
2723;DHT22;1369;53.216;10.396;2022-10-17T08:38:58;16.70;99.90
2723;DHT22;1369;53.216;10.396;2022-10-17T08:46:40;16.90;99.90
2723;DHT22;1369;53.216;10.396;2022-10-17T08:49:24;16.90;99.90
2723;DHT22;1369;53.216;10.396;2022-10-17T08:51:57;17.00;99.90
2723;DHT22;1369;53.216;10.396;2022-10-17T08:54:39;17.00;99.90
2723;DHT22;1369;53.216;10.396;2022-10-17T08:57:13;17.10;99.90
2723;DHT22;1369;53.216;10.396;2022-10-17T08:59:40;17.20;99.90
2723;DHT22;1369;53.216;10.396;2022-10-17T09:16:35;17.80;99.90
2723;DHT22;1369;53.216;10.396;2022-10-17T09:21:52;18.60;99.90
2723;DHT22;1369;53.216;10.396;2022-10-17T09:27:33;19.40;99.90
2723;DHT22;1369;53.216;10.396;2022-10-17T09:32:50;20.00;99.90
2723;DHT22;1369;53.216;10.396;2022-10-17T09:35:16;20.10;99.90
2723;DHT22;1369;53.216;10.396;2022-10-17T09:37:42;20.20;99.90
2723;DHT22;1369;53.216;10.396;2022-10-17T09:40:18;20.30;99.90
2723;DHT22;1369;53.216;10.396;2022-10-17T09:42:46;20.30;99.90
2723;DHT22;1369;53.216;10.396;2022-10-17T09:45:19;20.30;99.90
2723;DHT22;1369;53.216;10.396;2022-10-17T09:48:06;20.40;99.90
2723;DHT22;1369;53.216;10.396;2022-10-17T09:50:34;20.30;99.90
2723;DHT22;1369;53.216;10.396;2022-10-17T09:53:17;20.30;99.90
2723;DHT22;1369;53.216;10.396;2022-10-17T09:55:46;20.20;99.90
2723;DHT22;1369;53.216;10.396;2022-10-17T09:58:14;20.20;99.90
2723;DHT22;1369;53.216;10.396;2022-10-17T10:00:44;20.20;99.90
2723;DHT22;1369;53.216;10.396;2022-10-17T10:03:22;20.30;99.90
2723;DHT22;1369;53.216;10.396;2022-10-17T10:06:19;20.40;99.90
2723;DHT22;1369;53.216;10.396;2022-10-17T10:08:52;20.60;99.90
2723;DHT22;1369;53.216;10.396;2022-10-17T10:11:22;20.80;99.90
2723;DHT22;1369;53.216;10.396;2022-10-17T10:13:49;20.80;99.90
2723;DHT22;1369;53.216;10.396;2022-10-17T10:18:40;20.90;99.90
2723;DHT22;1369;53.216;10.396;2022-10-17T10:21:09;21.00;99.90
2723;DHT22;1369;53.216;10.396;2022-10-17T10:23:36;21.00;99.90
2723;DHT22;1369;53.216;10.396;2022-10-17T10:26:21;21.10;99.90
2723;DHT22;1369;53.216;10.396;2022-10-17T10:29:01;21.10;99.90
2723;DHT22;1369;53.216;10.396;2022-10-17T10:31:38;21.10;99.90
2723;DHT22;1369;53.216;10.396;2022-10-17T10:34:15;21.20;99.90
2723;DHT22;1369;53.216;10.396;2022-10-17T10:36:46;21.30;99.90
2723;DHT22;1369;53.216;10.396;2022-10-17T10:39:30;21.30;99.90
2723;DHT22;1369;53.216;10.396;2022-10-17T10:41:56;21.30;99.90
2723;DHT22;1369;53.216;10.396;2022-10-17T10:44:24;21.30;99.90
2723;DHT22;1369;53.216;10.396;2022-10-17T10:47:13;21.30;99.90
2723;DHT22;1369;53.216;10.396;2022-10-17T10:49:41;21.40;99.90
2723;DHT22;1369;53.216;10.396;2022-10-17T10:52:07;21.40;99.90
2723;DHT22;1369;53.216;10.396;2022-10-17T10:54:39;21.40;99.90
2723;DHT22;1369;53.216;10.396;2022-10-17T10:57:11;21.50;99.90
2723;DHT22;1369;53.216;10.396;2022-10-17T10:59:50;21.50;99.90
2723;DHT22;1369;53.216;10.396;2022-10-17T11:02:37;21.50;99.90
2723;DHT22;1369;53.216;10.396;2022-10-17T11:05:33;21.50;99.90
2723;DHT22;1369;53.216;10.396;2022-10-17T11:11:10;21.40;99.90
2723;DHT22;1369;53.216;10.396;2022-10-17T11:13:47;21.30;99.90
2723;DHT22;1369;53.216;10.396;2022-10-17T11:16:33;21.30;99.90
2723;DHT22;1369;53.216;10.396;2022-10-17T11:19:27;21.30;99.90
2723;DHT22;1369;53.216;10.396;2022-10-17T11:22:11;21.20;99.90
2723;DHT22;1369;53.216;10.396;2022-10-17T11:24:49;21.20;99.90
2723;DHT22;1369;53.216;10.396;2022-10-17T11:27:22;21.20;99.90
2723;DHT22;1369;53.216;10.396;2022-10-17T11:29:47;21.30;99.90
2723;DHT22;1369;53.216;10.396;2022-10-17T11:32:57;21.30;99.90
2723;DHT22;1369;53.216;10.396;2022-10-17T11:35:28;21.30;99.90
2723;DHT22;1369;53.216;10.396;2022-10-17T11:38:18;21.50;99.90
2723;DHT22;1369;53.216;10.396;2022-10-17T11:40:49;21.60;99.90
2723;DHT22;1369;53.216;10.396;2022-10-17T11:43:22;21.70;99.90
2723;DHT22;1369;53.216;10.396;2022-10-17T11:45:55;21.80;99.90
2723;DHT22;1369;53.216;10.396;2022-10-17T11:51:16;21.80;99.90
2723;DHT22;1369;53.216;10.396;2022-10-17T11:56:11;21.60;99.90
2723;DHT22;1369;53.216;10.396;2022-10-17T11:59:52;21.60;99.90
2723;DHT22;1369;53.216;10.396;2022-10-17T12:01:59;21.40;99.90
2723;DHT22;1369;53.216;10.396;2022-10-17T12:12:33;21.20;99.90
2723;DHT22;1369;53.216;10.396;2022-10-17T12:17:44;21.10;99.90
2723;DHT22;1369;53.216;10.396;2022-10-17T12:22:55;21.00;99.90
2723;DHT22;1369;53.216;10.396;2022-10-17T12:25:26;20.90;99.90
2723;DHT22;1369;53.216;10.396;2022-10-17T12:30:27;20.70;99.90
2723;DHT22;1369;53.216;10.396;2022-10-17T12:35:21;20.60;99.90
2723;DHT22;1369;53.216;10.396;2022-10-17T12:43:01;20.60;99.90
2723;DHT22;1369;53.216;10.396;2022-10-17T12:45:49;20.80;99.90
2723;DHT22;1369;53.216;10.396;2022-10-17T12:53:35;21.10;99.90
2723;DHT22;1369;53.216;10.396;2022-10-17T12:56:03;21.10;99.90
2723;DHT22;1369;53.216;10.396;2022-10-17T12:58:29;21.10;99.90
2723;DHT22;1369;53.216;10.396;2022-10-17T13:00:57;21.10;99.90
2723;DHT22;1369;53.216;10.396;2022-10-17T13:03:26;21.10;99.90
2723;DHT22;1369;53.216;10.396;2022-10-17T13:05:58;21.10;99.90
2723;DHT22;1369;53.216;10.396;2022-10-17T13:08:28;21.10;99.90
2723;DHT22;1369;53.216;10.396;2022-10-17T13:10:54;21.00;99.90
2723;DHT22;1369;53.216;10.396;2022-10-17T13:16:01;20.90;99.90
2723;DHT22;1369;53.216;10.396;2022-10-17T13:18:28;20.80;99.90
2723;DHT22;1369;53.216;10.396;2022-10-17T13:21:11;20.80;99.90
2723;DHT22;1369;53.216;10.396;2022-10-17T13:23:38;20.70;99.90
2723;DHT22;1369;53.216;10.396;2022-10-17T13:26:11;20.70;99.90
2723;DHT22;1369;53.216;10.396;2022-10-17T13:28:37;20.70;99.90
2723;DHT22;1369;53.216;10.396;2022-10-17T13:31:03;20.60;99.90
2723;DHT22;1369;53.216;10.396;2022-10-17T13:33:33;20.60;99.90
2723;DHT22;1369;53.216;10.396;2022-10-17T13:36:01;20.60;99.90
2723;DHT22;1369;53.216;10.396;2022-10-17T13:38:30;20.50;99.90
2723;DHT22;1369;53.216;10.396;2022-10-17T13:40:57;20.50;99.90
2723;DHT22;1369;53.216;10.396;2022-10-17T13:43:22;20.50;99.90
2723;DHT22;1369;53.216;10.396;2022-10-17T13:45:57;20.50;99.90
2723;DHT22;1369;53.216;10.396;2022-10-17T13:48:27;20.40;99.90
2723;DHT22;1369;53.216;10.396;2022-10-17T13:51:00;20.40;99.90
2723;DHT22;1369;53.216;10.396;2022-10-17T13:53:38;20.30;99.90
2723;DHT22;1369;53.216;10.396;2022-10-17T13:56:24;20.30;99.90
2723;DHT22;1369;53.216;10.396;2022-10-17T13:58:56;20.20;99.90
2723;DHT22;1369;53.216;10.396;2022-10-17T14:01:24;20.20;99.90
2723;DHT22;1369;53.216;10.396;2022-10-17T14:03:50;20.20;99.90
2723;DHT22;1369;53.216;10.396;2022-10-17T14:06:26;20.20;99.90
2723;DHT22;1369;53.216;10.396;2022-10-17T14:09:05;20.20;99.90
2723;DHT22;1369;53.216;10.396;2022-10-17T14:11:39;20.20;99.90
2723;DHT22;1369;53.216;10.396;2022-10-17T14:14:15;20.20;99.90
2723;DHT22;1369;53.216;10.396;2022-10-17T14:16:42;20.20;99.90
2723;DHT22;1369;53.216;10.396;2022-10-17T14:19:24;20.20;99.90
2723;DHT22;1369;53.216;10.396;2022-10-17T14:22:17;20.20;99.90
2723;DHT22;1369;53.216;10.396;2022-10-17T14:24:49;20.10;99.90
2723;DHT22;1369;53.216;10.396;2022-10-17T14:27:35;20.10;99.90
2723;DHT22;1369;53.216;10.396;2022-10-17T14:30:29;20.00;99.90
2723;DHT22;1369;53.216;10.396;2022-10-17T14:33:02;19.90;99.90
2723;DHT22;1369;53.216;10.396;2022-10-17T14:35:29;19.90;99.90
2723;DHT22;1369;53.216;10.396;2022-10-17T14:38:01;19.90;99.90
2723;DHT22;1369;53.216;10.396;2022-10-17T14:40:29;19.90;99.90
2723;DHT22;1369;53.216;10.396;2022-10-17T14:42:58;19.90;99.90
2723;DHT22;1369;53.216;10.396;2022-10-17T14:45:39;19.90;99.90
2723;DHT22;1369;53.216;10.396;2022-10-17T14:48:22;19.90;99.90
2723;DHT22;1369;53.216;10.396;2022-10-17T14:51:08;19.90;99.90
2723;DHT22;1369;53.216;10.396;2022-10-17T14:53:35;19.90;99.90
2723;DHT22;1369;53.216;10.396;2022-10-17T14:56:04;19.90;99.90
2723;DHT22;1369;53.216;10.396;2022-10-17T14:58:33;19.90;99.90
2723;DHT22;1369;53.216;10.396;2022-10-17T15:01:00;19.90;99.90
2723;DHT22;1369;53.216;10.396;2022-10-17T15:03:26;19.90;99.90
2723;DHT22;1369;53.216;10.396;2022-10-17T15:05:53;19.90;99.90
2723;DHT22;1369;53.216;10.396;2022-10-17T15:08:21;19.90;99.90
2723;DHT22;1369;53.216;10.396;2022-10-17T15:10:49;19.90;99.90
2723;DHT22;1369;53.216;10.396;2022-10-17T15:13:15;19.80;99.90
2723;DHT22;1369;53.216;10.396;2022-10-17T15:15:41;19.80;99.90
2723;DHT22;1369;53.216;10.396;2022-10-17T15:18:10;19.80;99.90
2723;DHT22;1369;53.216;10.396;2022-10-17T15:20:36;19.70;99.90
2723;DHT22;1369;53.216;10.396;2022-10-17T15:23:02;19.70;99.90
2723;DHT22;1369;53.216;10.396;2022-10-17T15:25:30;19.60;99.90
2723;DHT22;1369;53.216;10.396;2022-10-17T15:27:56;19.60;99.90
2723;DHT22;1369;53.216;10.396;2022-10-17T15:30:27;19.50;99.90
2723;DHT22;1369;53.216;10.396;2022-10-17T15:32:54;19.40;99.90
2723;DHT22;1369;53.216;10.396;2022-10-17T15:35:20;19.40;99.90
2723;DHT22;1369;53.216;10.396;2022-10-17T15:37:47;19.30;99.90
2723;DHT22;1369;53.216;10.396;2022-10-17T15:40:15;19.30;99.90
2723;DHT22;1369;53.216;10.396;2022-10-17T15:42:41;19.30;99.90
2723;DHT22;1369;53.216;10.396;2022-10-17T15:45:09;19.20;99.90
2723;DHT22;1369;53.216;10.396;2022-10-17T15:47:34;19.10;99.90
2723;DHT22;1369;53.216;10.396;2022-10-17T15:50:02;19.10;99.90
2723;DHT22;1369;53.216;10.396;2022-10-17T15:52:28;19.00;99.90
2723;DHT22;1369;53.216;10.396;2022-10-17T15:54:53;18.90;99.90
2723;DHT22;1369;53.216;10.396;2022-10-17T15:57:22;18.90;99.90
2723;DHT22;1369;53.216;10.396;2022-10-17T15:59:49;18.90;99.90
2723;DHT22;1369;53.216;10.396;2022-10-17T16:02:16;18.80;99.90
2723;DHT22;1369;53.216;10.396;2022-10-17T16:04:42;18.80;99.90
2723;DHT22;1369;53.216;10.396;2022-10-17T16:07:08;18.70;99.90
2723;DHT22;1369;53.216;10.396;2022-10-17T16:09:34;18.70;99.90
2723;DHT22;1369;53.216;10.396;2022-10-17T16:12:02;18.60;99.90
2723;DHT22;1369;53.216;10.396;2022-10-17T16:14:28;18.60;99.90
2723;DHT22;1369;53.216;10.396;2022-10-17T16:16:55;18.50;99.90
2723;DHT22;1369;53.216;10.396;2022-10-17T16:19:21;18.50;99.90
2723;DHT22;1369;53.216;10.396;2022-10-17T16:21:47;18.50;99.90
2723;DHT22;1369;53.216;10.396;2022-10-17T16:24:13;18.40;99.90
2723;DHT22;1369;53.216;10.396;2022-10-17T16:26:39;18.40;99.90
2723;DHT22;1369;53.216;10.396;2022-10-17T16:29:04;18.40;99.90
2723;DHT22;1369;53.216;10.396;2022-10-17T16:31:33;18.40;99.90
2723;DHT22;1369;53.216;10.396;2022-10-17T16:34:00;18.30;99.90
2723;DHT22;1369;53.216;10.396;2022-10-17T16:36:26;18.30;99.90
2723;DHT22;1369;53.216;10.396;2022-10-17T16:38:52;18.30;99.90
2723;DHT22;1369;53.216;10.396;2022-10-17T16:41:26;18.30;99.90
2723;DHT22;1369;53.216;10.396;2022-10-17T16:43:54;18.30;99.90
2723;DHT22;1369;53.216;10.396;2022-10-17T16:46:21;18.20;99.90
2723;DHT22;1369;53.216;10.396;2022-10-17T16:48:47;18.20;99.90
2723;DHT22;1369;53.216;10.396;2022-10-17T16:51:14;18.20;99.90
2723;DHT22;1369;53.216;10.396;2022-10-17T16:53:40;18.20;99.90
2723;DHT22;1369;53.216;10.396;2022-10-17T16:56:27;18.10;99.90
2723;DHT22;1369;53.216;10.396;2022-10-17T16:58:54;18.10;99.90
2723;DHT22;1369;53.216;10.396;2022-10-17T17:01:22;18.10;99.90
2723;DHT22;1369;53.216;10.396;2022-10-17T17:03:48;18.10;99.90
2723;DHT22;1369;53.216;10.396;2022-10-17T17:06:19;18.00;99.90
2723;DHT22;1369;53.216;10.396;2022-10-17T17:08:45;18.00;99.90
2723;DHT22;1369;53.216;10.396;2022-10-17T17:11:13;18.00;99.90
2723;DHT22;1369;53.216;10.396;2022-10-17T17:13:39;18.00;99.90
2723;DHT22;1369;53.216;10.396;2022-10-17T17:16:17;18.00;99.90
2723;DHT22;1369;53.216;10.396;2022-10-17T17:18:43;18.00;99.90
2723;DHT22;1369;53.216;10.396;2022-10-17T17:21:10;18.00;99.90
2723;DHT22;1369;53.216;10.396;2022-10-17T17:23:38;18.00;99.90
2723;DHT22;1369;53.216;10.396;2022-10-17T17:26:06;18.00;99.90
2723;DHT22;1369;53.216;10.396;2022-10-17T17:28:33;18.00;99.90
2723;DHT22;1369;53.216;10.396;2022-10-17T17:30:59;18.00;99.90
2723;DHT22;1369;53.216;10.396;2022-10-17T17:33:26;18.00;99.90
2723;DHT22;1369;53.216;10.396;2022-10-17T17:35:56;18.00;99.90
2723;DHT22;1369;53.216;10.396;2022-10-17T17:38:22;18.00;99.90
2723;DHT22;1369;53.216;10.396;2022-10-17T17:40:47;18.00;99.90